Time;durP1;ratioP1;P1;durP2;ratioP2;P2;SDS_P1;SDS_P2;PMS_P1;PMS_P2;Temp;Humidity;BMP_temperature;BMP_pressure;BME280_temperature;BME280_humidity;BME280_pressure;Samples;Min_cycle;Max_cycle;Signal;HPM_P1;HPM_P2
2023/09/28 00:00:35;;;;;;;1.80;1.77;;;;;;;17.09;93.14;95644.72;4362461;32;20263;-63
2023/09/28 00:02:46;;;;;;;2.47;2.37;;;;;;;17.16;92.88;95646.91;4298684;32;20189;-62
2023/09/28 00:05:13;;;;;;;3.40;3.10;;;;;;;17.11;93.19;95653.25;4353650;32;20251;-63
2023/09/28 00:07:41;;;;;;;2.03;2.03;;;;;;;17.14;92.98;95651.81;4366846;32;20192;-63
2023/09/28 00:10:11;;;;;;;3.93;3.47;;;;;;;17.11;93.20;95658.59;4335657;32;20181;-63
2023/09/28 00:12:39;;;;;;;2.23;2.13;;;;;;;16.99;93.22;95658.53;4321476;32;20199;-63
2023/09/28 00:15:10;;;;;;;1.63;1.63;;;;;;;17.06;93.34;95664.16;4348150;32;20203;-63
2023/09/28 00:17:38;;;;;;;2.80;2.67;;;;;;;17.16;92.98;95668.34;4361036;32;20263;-63
2023/09/28 00:20:17;;;;;;;2.50;2.40;;;;;;;17.15;92.83;95664.87;4354236;32;20185;-63
2023/09/28 00:22:53;;;;;;;2.87;2.67;;;;;;;17.10;93.13;95664.28;4354414;32;20220;-62
2023/09/28 00:25:21;;;;;;;1.60;1.60;;;;;;;17.07;93.15;95665.72;4349855;32;20234;-62
2023/09/28 00:27:50;;;;;;;3.40;3.00;;;;;;;17.07;93.11;95659.56;4362660;32;20253;-62
2023/09/28 00:30:20;;;;;;;3.40;3.20;;;;;;;17.06;93.18;95666.03;4361409;32;20200;-63
2023/09/28 00:32:46;;;;;;;2.87;2.67;;;;;;;17.02;93.24;95671.28;4352343;32;20180;-63
2023/09/28 00:35:13;;;;;;;2.90;2.80;;;;;;;17.10;93.08;95667.75;4376913;32;20188;-63
2023/09/28 00:37:43;;;;;;;2.73;2.50;;;;;;;17.02;93.18;95671.28;4364884;32;20188;-63
2023/09/28 00:40:31;;;;;;;2.80;2.67;;;;;;;16.96;93.74;95672.59;4374024;32;20256;-63
2023/09/28 00:42:56;;;;;;;2.17;2.07;;;;;;;16.86;94.24;95674.84;4337109;32;20189;-63
2023/09/28 00:45:22;;;;;;;2.63;2.53;;;;;;;16.82;94.65;95667.47;4346567;32;20203;-63
2023/09/28 00:47:54;;;;;;;4.10;2.90;;;;;;;16.76;94.86;95665.28;4373524;32;20185;-62
2023/09/28 00:50:23;;;;;;;2.20;2.10;;;;;;;16.77;94.85;95662.28;4330207;32;20193;-63
2023/09/28 00:52:59;;;;;;;3.27;2.97;;;;;;;16.88;94.62;95664.59;4337515;32;20223;-63
2023/09/28 00:55:27;;;;;;;2.20;2.10;;;;;;;16.90;94.46;95668.50;4357699;32;20201;-63
2023/09/28 00:58:00;;;;;;;2.07;1.97;;;;;;;16.95;94.25;95681.72;4359004;32;20185;-62
2023/09/28 01:00:29;;;;;;;2.20;2.10;;;;;;;16.96;93.77;95672.59;4347891;32;20195;-63
2023/09/28 01:02:58;;;;;;;3.13;2.93;;;;;;;16.76;94.55;95673.34;4351155;32;20181;-63
2023/09/28 01:05:33;;;;;;;1.80;1.70;;;;;;;16.59;95.45;95668.81;4367647;32;20188;-63
2023/09/28 01:08:19;;;;;;;3.30;3.10;;;;;;;16.74;94.96;95673.66;4362631;32;20192;-63
2023/09/28 01:10:46;;;;;;;3.03;2.70;;;;;;;16.76;94.69;95673.34;4336852;32;20180;-62
2023/09/28 01:13:17;;;;;;;2.07;2.00;;;;;;;16.80;94.62;95674.25;4364841;32;20204;-63
2023/09/28 01:15:51;;;;;;;2.23;2.23;;;;;;;16.84;94.42;95673.25;4367922;32;20185;-63
2023/09/28 01:18:20;;;;;;;1.87;1.83;;;;;;;16.91;93.81;95675.44;4339085;32;20208;-63
2023/09/28 01:20:48;;;;;;;2.13;2.03;;;;;;;16.88;93.89;95680.66;4357471;32;20207;-63
2023/09/28 01:23:16;;;;;;;2.17;2.07;;;;;;;16.80;94.36;95691.12;4361131;32;20212;-62
2023/09/28 01:25:45;;;;;;;1.83;1.77;;;;;;;16.79;94.47;95683.41;4336246;32;20204;-63
2023/09/28 01:28:12;;;;;;;2.63;1.93;;;;;;;16.81;94.56;95686.56;4345536;32;20236;-62
2023/09/28 01:30:37;;;;;;;1.47;1.47;;;;;;;16.86;94.18;95683.66;4354637;32;20181;-63
2023/09/28 01:33:04;;;;;;;1.93;1.83;;;;;;;16.90;94.11;95686.50;4346109;32;20203;-62
2023/09/28 01:35:31;;;;;;;2.80;2.30;;;;;;;16.79;94.38;95691.44;4360838;32;20181;-63
2023/09/28 01:38:15;;;;;;;3.10;2.90;;;;;;;16.76;94.56;95690.19;4357279;32;20189;-63
2023/09/28 01:40:42;;;;;;;1.63;1.63;;;;;;;16.77;94.71;95693.66;4322087;32;20177;-63
2023/09/28 01:43:12;;;;;;;2.13;2.03;;;;;;;16.80;94.62;95688.44;4360220;32;20188;-63
2023/09/28 01:45:37;;;;;;;2.03;1.93;;;;;;;16.76;94.69;95695.56;4359720;32;20203;-62
2023/09/28 01:48:06;;;;;;;3.37;3.13;;;;;;;16.82;94.63;95693.47;4363643;32;20193;-62
2023/09/28 01:50:33;;;;;;;2.30;2.10;;;;;;;16.67;94.45;95683.28;4330343;32;20265;-63
2023/09/28 01:53:03;;;;;;;3.03;2.83;;;;;;;16.77;94.73;95690.97;4362935;32;20184;-62
2023/09/28 01:55:31;;;;;;;2.03;1.93;;;;;;;16.76;94.63;95694.75;4346147;32;20193;-63
2023/09/28 01:57:56;;;;;;;2.17;2.07;;;;;;;16.81;94.56;95691.91;4326453;32;20207;-62
2023/09/28 02:00:25;;;;;;;2.40;2.20;;;;;;;16.66;95.40;95700.47;4337530;32;20240;-63
2023/09/28 02:02:56;;;;;;;2.00;1.90;;;;;;;16.82;94.63;95690.81;4353117;32;20222;-63
2023/09/28 02:05:25;;;;;;;2.47;2.37;;;;;;;16.65;95.38;95686.28;4329337;32;20379;-62
2023/09/28 02:07:51;;;;;;;2.07;1.97;;;;;;;16.73;94.75;95684.69;4345185;32;20197;-63
2023/09/28 02:10:17;;;;;;;1.90;1.80;;;;;;;16.74;94.75;95681.69;4359726;32;20200;-63
2023/09/28 02:12:43;;;;;;;1.40;1.40;;;;;;;16.75;94.52;95687.84;4354894;32;20188;-62
2023/09/28 02:15:10;;;;;;;3.53;3.17;;;;;;;16.78;94.11;95689.88;4352698;32;20181;-62
2023/09/28 02:17:37;;;;;;;3.80;1.43;;;;;;;16.78;94.17;95693.34;4364551;32;20230;-63
2023/09/28 02:20:10;;;;;;;1.57;1.57;;;;;;;16.77;94.10;95688.31;4359682;32;20236;-63
2023/09/28 02:22:43;;;;;;;1.43;1.43;;;;;;;16.53;94.77;95691.53;4359642;32;20272;-62
2023/09/28 02:25:19;;;;;;;2.50;2.40;;;;;;;16.68;94.60;95693.69;4350023;32;20193;-63
2023/09/28 02:27:45;;;;;;;1.53;1.53;;;;;;;16.64;94.71;95698.12;4324455;32;20194;-62
2023/09/28 02:30:13;;;;;;;2.13;2.03;;;;;;;16.59;94.52;95698.28;4371026;32;20205;-63
2023/09/28 02:32:39;;;;;;;1.80;1.70;;;;;;;16.56;94.60;95696.25;4352717;32;20188;-62
2023/09/28 02:35:09;;;;;;;6.13;2.10;;;;;;;16.49;94.96;95702.09;4351844;32;20303;-63
2023/09/28 02:37:35;;;;;;;1.57;1.53;;;;;;;16.46;95.00;95697.38;4338401;32;20264;-63
2023/09/28 02:40:06;;;;;;;1.73;1.63;;;;;;;16.52;94.98;95703.34;4337399;32;20190;-63
2023/09/28 02:42:39;;;;;;;2.23;2.13;;;;;;;16.59;94.61;95700.19;4354083;32;20181;-63
2023/09/28 02:45:14;;;;;;;1.73;1.67;;;;;;;16.55;94.92;95700.03;4350828;32;20188;-63
2023/09/28 02:47:43;;;;;;;2.57;1.17;;;;;;;16.68;94.49;95700.94;4347428;32;20223;-63
2023/09/28 02:50:11;;;;;;;2.70;2.50;;;;;;;16.69;94.19;95702.50;4371309;32;20185;-63
2023/09/28 02:52:38;;;;;;;1.53;1.43;;;;;;;16.61;94.37;95700.66;4353678;32;20269;-63
2023/09/28 02:55:22;;;;;;;2.90;1.67;;;;;;;16.63;94.29;95701.09;4365950;32;20250;-63
2023/09/28 02:57:48;;;;;;;2.10;1.97;;;;;;;16.57;94.77;95702.37;4374283;32;20185;-63
2023/09/28 03:02:51;;;;;;;1.30;1.30;;;;;;;16.45;95.40;95711.88;4372804;32;20191;-62
2023/09/28 03:05:26;;;;;;;1.57;1.47;;;;;;;16.59;94.76;95713.56;4341624;32;20307;-63
2023/09/28 03:07:52;;;;;;;5.50;1.93;;;;;;;16.70;94.31;95714.81;4359507;32;20176;-63
2023/09/28 03:10:20;;;;;;;2.30;2.20;;;;;;;16.70;94.18;95701.41;4346239;32;20272;-61
2023/09/28 03:12:51;;;;;;;1.83;1.73;;;;;;;16.66;93.94;95705.84;4363508;32;20203;-61
2023/09/28 03:15:18;;;;;;;1.40;1.40;;;;;;;16.64;94.14;95708.84;4375421;32;20215;-61
2023/09/28 03:17:55;;;;;;;1.10;1.10;;;;;;;16.61;94.15;95714.03;4368569;32;20188;-61
2023/09/28 03:20:22;;;;;;;1.00;1.00;;;;;;;16.67;94.02;95718.13;4362686;32;20200;-61
2023/09/28 03:22:52;;;;;;;1.27;1.27;;;;;;;16.42;94.98;95720.53;4375736;32;20259;-61
2023/09/28 03:25:22;;;;;;;1.63;1.53;;;;;;;16.58;94.23;95725.37;4346354;32;20207;-62
2023/09/28 03:27:55;;;;;;;1.10;1.10;;;;;;;16.59;94.26;95717.03;4358849;32;20189;-61
2023/09/28 03:30:23;;;;;;;1.73;1.73;;;;;;;16.57;93.88;95726.50;4371739;32;20241;-62
2023/09/28 03:32:50;;;;;;;2.60;2.23;;;;;;;16.41;94.86;95719.00;4358248;32;20255;-62
2023/09/28 03:35:17;;;;;;;1.47;1.47;;;;;;;16.50;94.59;95726.97;4354945;32;20203;-62
2023/09/28 03:37:44;;;;;;;1.77;1.67;;;;;;;16.51;94.40;95715.16;4360478;32;20178;-63
2023/09/28 03:40:12;;;;;;;1.50;1.50;;;;;;;16.54;94.03;95732.50;4355186;32;20204;-62
2023/09/28 03:42:46;;;;;;;1.13;1.13;;;;;;;16.59;94.05;95726.97;4371837;32;20195;-62
2023/09/28 03:45:15;;;;;;;0.90;0.90;;;;;;;16.55;94.16;95720.66;4360061;32;20201;-61
2023/09/28 03:47:44;;;;;;;1.37;1.37;;;;;;;16.37;94.83;95715.38;4344755;32;20185;-62
2023/09/28 03:50:13;;;;;;;1.93;1.60;;;;;;;16.37;95.05;95720.72;4342660;32;20177;-61
2023/09/28 03:52:41;;;;;;;1.67;1.57;;;;;;;16.40;94.92;95727.34;4352439;32;20242;-61
2023/09/28 03:55:14;;;;;;;1.07;1.07;;;;;;;16.33;95.02;95725.16;4333201;32;20219;-61
2023/09/28 03:57:44;;;;;;;0.70;0.70;;;;;;;16.41;94.40;95727.03;4375998;32;20184;-62
2023/09/28 04:00:27;;;;;;;1.70;1.50;;;;;;;16.34;94.31;95732.09;4361810;32;20256;-62
2023/09/28 04:02:54;;;;;;;1.23;1.20;;;;;;;16.10;95.04;95729.12;4354283;32;20294;-62
2023/09/28 04:05:23;;;;;;;2.13;1.87;;;;;;;16.23;95.07;95730.84;4364621;32;20185;-62
2023/09/28 04:07:50;;;;;;;1.33;1.33;;;;;;;16.05;95.01;95746.16;4330576;32;20315;-62
2023/09/28 04:10:16;;;;;;;1.87;1.23;;;;;;;15.94;96.00;95738.78;4368297;32;20216;-62
2023/09/28 04:12:41;;;;;;;1.80;1.70;;;;;;;16.24;95.29;95737.75;4358324;32;20185;-62
2023/09/28 04:15:08;;;;;;;6.10;1.47;;;;;;;16.24;94.06;95743.13;4360680;32;20177;-62
2023/09/28 04:17:36;;;;;;;3.30;1.43;;;;;;;16.28;94.64;95740.59;4366091;32;20196;-61
2023/09/28 04:20:05;;;;;;;2.20;2.10;;;;;;;16.32;94.54;95745.00;4346231;32;20254;-62
2023/09/28 04:22:31;;;;;;;1.60;1.50;;;;;;;16.26;94.12;95740.13;4357866;32;20191;-62
2023/09/28 04:24:58;;;;;;;1.23;1.23;;;;;;;16.26;94.31;95735.56;4331574;32;20186;-62
2023/09/28 04:27:24;;;;;;;1.30;1.30;;;;;;;16.31;94.35;95737.28;4364375;32;20235;-62
2023/09/28 04:29:51;;;;;;;2.20;2.10;;;;;;;16.18;95.04;95736.38;4367949;32;20204;-62
2023/09/28 04:32:17;;;;;;;1.23;1.23;;;;;;;16.22;95.00;95737.28;4367190;32;20223;-62
2023/09/28 04:34:44;;;;;;;1.43;1.43;;;;;;;16.30;94.61;95747.22;4363618;32;20200;-62
2023/09/28 04:37:10;;;;;;;1.13;1.13;;;;;;;16.17;94.38;95744.72;4356711;32;20209;-62
2023/09/28 04:39:36;;;;;;;0.93;0.93;;;;;;;16.19;95.12;95739.84;4361702;32;20223;-61
2023/09/28 04:42:03;;;;;;;0.73;0.73;;;;;;;16.19;95.10;95737.97;4340038;32;20213;-61
2023/09/28 04:44:29;;;;;;;1.43;1.43;;;;;;;16.19;94.58;95743.31;4362724;32;20236;-62
2023/09/28 04:46:58;;;;;;;0.90;0.90;;;;;;;16.14;95.43;95738.91;4378485;32;20181;-61
2023/09/28 04:49:25;;;;;;;1.50;1.33;;;;;;;16.26;94.98;95740.13;4378550;32;20184;-62
2023/09/28 04:51:51;;;;;;;1.40;1.33;;;;;;;16.31;94.66;95742.63;4376207;32;20259;-62
2023/09/28 04:54:18;;;;;;;1.30;1.20;;;;;;;16.36;94.13;95743.25;4362568;32;20200;-61
2023/09/28 04:56:43;;;;;;;1.33;1.23;;;;;;;16.30;94.31;95747.22;4366952;32;20189;-62
2023/09/28 04:59:10;;;;;;;0.73;0.73;;;;;;;16.05;94.99;95746.16;4377863;32;20195;-62
2023/09/28 05:01:36;;;;;;;0.80;0.80;;;;;;;16.25;94.48;95741.22;4364894;32;20282;-62
2023/09/28 05:04:04;;;;;;;1.20;1.20;;;;;;;16.38;94.18;95741.06;4377858;32;20176;-61
2023/09/28 05:06:31;;;;;;;2.67;1.87;;;;;;;16.20;93.69;95747.56;4378487;32;20251;-61
2023/09/28 05:08:58;;;;;;;4.00;1.07;;;;;;;16.32;93.93;95744.22;4361885;32;20205;-62
2023/09/28 05:11:23;;;;;;;1.40;1.27;;;;;;;16.23;94.17;95751.47;4360148;32;20303;-62
2023/09/28 05:13:49;;;;;;;2.80;1.30;;;;;;;16.38;93.99;95751.78;4370759;32;20181;-62
2023/09/28 05:16:15;;;;;;;1.37;1.33;;;;;;;16.40;93.95;95752.25;4380480;32;20264;-61
2023/09/28 05:18:42;;;;;;;2.63;1.33;;;;;;;16.41;93.60;95753.81;4341185;32;20185;-61
2023/09/28 05:21:09;;;;;;;2.20;0.97;;;;;;;16.38;93.47;95750.97;4379739;32;20177;-62
2023/09/28 05:23:37;;;;;;;4.10;2.10;;;;;;;16.41;93.57;95759.16;4372597;32;20189;-62
2023/09/28 05:26:04;;;;;;;0.80;0.80;;;;;;;16.31;93.54;95748.00;4364447;32;20195;-62
2023/09/28 05:28:30;;;;;;;1.13;1.13;;;;;;;16.20;94.38;95747.56;4354780;32;20255;-62
2023/09/28 05:30:56;;;;;;;1.33;1.33;;;;;;;16.30;93.70;95747.22;4374731;32;20188;-62
2023/09/28 05:33:22;;;;;;;1.30;1.30;;;;;;;16.39;93.67;95747.97;4366709;32;20337;-61
2023/09/28 05:35:47;;;;;;;0.83;0.83;;;;;;;16.33;93.44;95757.28;4364443;32;20189;-62
2023/09/28 05:38:13;;;;;;;6.33;1.60;;;;;;;16.30;93.59;95752.56;4377328;32;20211;-61
2023/09/28 05:40:39;;;;;;;1.33;1.33;;;;;;;16.28;94.20;95756.66;4360724;32;20177;-62
2023/09/28 05:43:04;;;;;;;1.73;1.50;;;;;;;16.31;93.71;95754.13;4332303;32;20197;-61
2023/09/28 05:45:33;;;;;;;0.87;0.87;;;;;;;16.33;94.26;95756.50;4367742;32;20196;-62
2023/09/28 05:47:58;;;;;;;1.20;1.20;;;;;;;16.32;93.92;95761.06;4356484;32;20199;-62
2023/09/28 05:50:25;;;;;;;6.57;2.27;;;;;;;16.30;94.45;95759.81;4338264;32;20188;-62
2023/09/28 05:52:56;;;;;;;1.67;1.57;;;;;;;16.27;93.84;95761.22;4322387;32;20190;-61
2023/09/28 05:55:25;;;;;;;1.87;1.87;;;;;;;16.22;94.60;95760.59;4354040;32;20185;-62
2023/09/28 05:57:55;;;;;;;7.30;1.77;;;;;;;16.38;94.13;95765.16;4322072;32;20193;-62
2023/09/28 06:00:20;;;;;;;2.17;1.97;;;;;;;16.46;93.60;95763.53;4313669;32;20221;-62
2023/09/28 06:02:47;;;;;;;1.13;1.13;;;;;;;16.44;93.95;95769.22;4327677;32;20212;-62
2023/09/28 06:05:13;;;;;;;2.13;1.93;;;;;;;16.50;93.53;95767.94;4375282;32;20172;-62
2023/09/28 06:07:38;;;;;;;10.93;1.17;;;;;;;16.51;91.81;95771.41;4363132;32;20183;-62
2023/09/28 06:10:23;;;;;;;1.33;1.33;;;;;;;16.36;91.80;95770.03;4349993;32;20231;-62
2023/09/28 06:12:50;;;;;;;1.63;1.53;;;;;;;16.28;92.37;95770.03;4343894;32;20223;-62
2023/09/28 06:15:19;;;;;;;1.23;1.23;;;;;;;16.28;93.28;95775.41;4329680;32;20205;-62
2023/09/28 06:17:44;;;;;;;5.27;1.97;;;;;;;16.27;92.68;95766.59;4324465;32;20284;-62
2023/09/28 06:20:10;;;;;;;1.90;1.80;;;;;;;16.26;93.92;95783.75;4330312;32;20205;-62
2023/09/28 06:22:40;;;;;;;1.57;1.47;;;;;;;16.21;93.62;95778.56;4341320;32;20192;-62
2023/09/28 06:25:08;;;;;;;1.17;0.83;;;;;;;16.23;93.52;95779.03;4354196;32;20191;-62
2023/09/28 06:27:34;;;;;;;1.43;1.43;;;;;;;16.31;93.92;95780.91;4350642;32;20302;-62
2023/09/28 06:30:02;;;;;;;1.00;1.00;;;;;;;16.34;93.35;95777.59;4345985;32;20199;-62
2023/09/28 06:32:33;;;;;;;1.07;1.07;;;;;;;16.37;93.18;95776.19;4379718;32;20221;-62
2023/09/28 06:35:01;;;;;;;1.43;1.43;;;;;;;16.33;93.33;95784.06;4375245;32;20185;-62
2023/09/28 06:37:30;;;;;;;1.77;1.67;;;;;;;16.37;93.33;95782.31;4360214;32;20180;-62
2023/09/28 06:39:56;;;;;;;2.53;1.30;;;;;;;16.44;93.51;95793.31;4361670;32;20229;-62
2023/09/28 06:42:22;;;;;;;13.03;2.13;;;;;;;16.48;93.81;95790.78;4369876;32;20201;-62
2023/09/28 06:44:47;;;;;;;5.20;2.47;;;;;;;16.53;94.53;95787.97;4378097;32;20252;-62
2023/09/28 06:47:13;;;;;;;3.90;1.30;;;;;;;16.56;94.60;95791.91;4371385;32;20172;-62
2023/09/28 06:49:42;;;;;;;1.87;1.80;;;;;;;16.63;94.56;95793.00;4355274;32;20319;-62
2023/09/28 06:52:08;;;;;;;1.60;1.50;;;;;;;16.71;94.37;95804.78;4351517;32;20258;-63
2023/09/28 06:58:06;;;;;;;3.23;1.73;;;;;;;16.81;93.75;95797.22;4376349;32;20258;-62
2023/09/28 07:00:32;;;;;;;3.87;1.77;;;;;;;16.96;93.46;95803.94;4368476;32;20200;-62
2023/09/28 07:03:00;;;;;;;1.13;1.03;;;;;;;17.01;93.04;95803.75;4375483;32;20199;-62
2023/09/28 07:05:27;;;;;;;0.90;0.90;;;;;;;17.01;92.84;95803.75;4358199;32;20216;-62
2023/09/28 07:07:52;;;;;;;1.07;0.93;;;;;;;17.10;92.64;95807.16;4359834;32;20306;-62
2023/09/28 07:10:18;;;;;;;1.13;1.13;;;;;;;17.12;92.30;95802.28;4338621;32;20180;-62
2023/09/28 07:12:46;;;;;;;1.37;1.33;;;;;;;17.21;92.12;95801.44;4340409;32;20219;-62
2023/09/28 07:15:13;;;;;;;1.77;1.60;;;;;;;17.21;91.24;95812.19;4323685;32;20291;-62
2023/09/28 07:17:38;;;;;;;0.93;0.93;;;;;;;17.28;90.71;95802.50;4367726;32;20199;-62
2023/09/28 07:20:07;;;;;;;1.17;1.17;;;;;;;17.25;91.21;95816.56;4336407;32;20231;-63
2023/09/28 07:22:36;;;;;;;1.70;1.60;;;;;;;17.26;91.80;95811.97;4336976;32;20216;-62
2023/09/28 07:25:01;;;;;;;1.80;1.50;;;;;;;17.25;92.05;95807.75;4343592;32;20189;-62
2023/09/28 07:27:32;;;;;;;4.33;1.90;;;;;;;17.32;91.79;95818.72;4356625;32;20194;-62
2023/09/28 07:29:59;;;;;;;0.87;0.87;;;;;;;17.34;91.38;95813.84;4368755;32;20196;-62
2023/09/28 07:32:29;;;;;;;1.97;1.27;;;;;;;17.37;91.42;95822.03;4360365;32;20185;-62
2023/09/28 07:34:56;;;;;;;2.77;1.50;;;;;;;17.33;91.57;95833.72;4367985;32;20217;-62
2023/09/28 07:37:22;;;;;;;0.90;0.90;;;;;;;17.42;91.43;95829.13;4372213;32;20181;-62
2023/09/28 07:39:50;;;;;;;1.27;1.17;;;;;;;17.45;91.42;95833.84;4333000;32;20177;-62
2023/09/28 07:42:15;;;;;;;1.10;1.10;;;;;;;17.49;91.41;95834.72;4351370;32;20191;-62
2023/09/28 07:44:49;;;;;;;1.20;1.20;;;;;;;17.52;91.43;95840.25;4352899;32;20252;-62
2023/09/28 07:47:23;;;;;;;0.80;0.80;;;;;;;17.49;91.43;95840.09;4370072;32;20177;-62
2023/09/28 07:49:48;;;;;;;1.37;1.37;;;;;;;17.56;90.74;95834.22;4360626;32;20283;-62
2023/09/28 07:52:16;;;;;;;1.23;1.23;;;;;;;17.53;90.80;95839.13;4359894;32;20193;-62
2023/09/28 07:54:43;;;;;;;1.00;1.00;;;;;;;17.60;90.62;95841.31;4352861;32;20257;-62
2023/09/28 07:57:10;;;;;;;0.73;0.73;;;;;;;17.63;90.34;95837.97;4374163;32;20256;-63
2023/09/28 07:59:36;;;;;;;1.43;1.33;;;;;;;17.66;89.29;95845.41;4366291;32;20180;-62
2023/09/28 08:02:04;;;;;;;0.60;0.60;;;;;;;17.72;88.91;95846.00;4360212;32;20199;-62
2023/09/28 08:04:31;;;;;;;1.20;1.20;;;;;;;17.74;89.04;95843.78;4357103;32;20185;-64
2023/09/28 08:07:01;;;;;;;1.10;1.10;;;;;;;17.76;88.79;95839.66;4356256;32;20196;-65
2023/09/28 08:09:30;;;;;;;1.17;1.13;;;;;;;17.76;88.63;95839.66;4362624;32;20238;-65
2023/09/28 08:11:55;;;;;;;1.03;1.03;;;;;;;17.84;88.09;95841.50;4363752;32;20200;-64
2023/09/28 08:14:21;;;;;;;0.73;0.73;;;;;;;17.85;87.84;95845.75;4345660;32;20199;-64
2023/09/28 08:16:48;;;;;;;0.53;0.53;;;;;;;17.92;87.43;95839.84;4331627;32;20190;-63
2023/09/28 08:19:15;;;;;;;3.57;1.60;;;;;;;17.93;87.59;95846.00;4366556;32;20180;-64
2023/09/28 08:21:42;;;;;;;0.97;0.97;;;;;;;17.99;87.40;95847.41;4377423;32;20236;-64
2023/09/28 08:24:10;;;;;;;0.97;0.97;;;;;;;17.98;87.49;95837.78;4323887;32;20289;-64
2023/09/28 08:26:37;;;;;;;1.73;1.63;;;;;;;18.04;87.62;95849.91;4359783;32;20177;-64
2023/09/28 08:29:05;;;;;;;0.77;0.77;;;;;;;18.05;87.11;95849.56;4342813;32;20235;-64
2023/09/28 08:31:33;;;;;;;1.30;1.30;;;;;;;18.15;86.33;95845.69;4357349;32;20185;-64
2023/09/28 08:34:00;;;;;;;1.30;1.30;;;;;;;18.21;86.00;95844.38;4377452;32;20188;-64
2023/09/28 08:36:27;;;;;;;1.00;1.00;;;;;;;18.39;83.84;95843.12;4356565;32;20185;-64
2023/09/28 08:38:53;;;;;;;1.73;1.63;;;;;;;18.44;83.03;95839.44;4354292;32;20201;-64
2023/09/28 08:41:44;;;;;;;1.80;1.70;;;;;;;18.47;83.08;95844.94;4361316;32;20200;-64
2023/09/28 08:44:11;;;;;;;0.50;0.50;;;;;;;18.55;81.65;95843.28;4378826;32;20299;-64
2023/09/28 08:46:40;;;;;;;1.50;1.50;;;;;;;18.62;81.67;95848.94;4348889;32;20319;-64
2023/09/28 08:49:14;;;;;;;1.87;1.40;;;;;;;18.66;80.95;95843.69;4336107;32;20189;-64
2023/09/28 08:51:44;;;;;;;1.43;1.40;;;;;;;18.67;81.03;95846.06;4357693;32;20184;-64
2023/09/28 08:54:12;;;;;;;1.30;1.30;;;;;;;18.74;80.51;95840.13;4377553;32;20176;-64
2023/09/28 08:56:42;;;;;;;0.97;0.97;;;;;;;18.74;80.63;95850.88;4327318;32;20506;-64
2023/09/28 08:59:12;;;;;;;3.00;1.40;;;;;;;18.75;80.62;95847.84;4327271;32;20198;-64
2023/09/28 09:01:40;;;;;;;1.20;1.20;;;;;;;18.89;77.81;95847.56;4356468;32;20196;-64
2023/09/28 09:04:07;;;;;;;1.23;1.17;;;;;;;18.90;78.04;95843.75;4348613;32;20185;-64
2023/09/28 09:06:32;;;;;;;1.93;1.83;;;;;;;18.89;77.32;95844.88;4340526;32;20218;-64
2023/09/28 09:09:03;;;;;;;1.30;1.30;;;;;;;18.92;77.76;95846.87;4335769;32;20256;-64
2023/09/28 09:11:31;;;;;;;2.70;1.67;;;;;;;18.94;76.86;95844.63;4350363;32;20168;-64
2023/09/28 09:13:57;;;;;;;1.87;1.33;;;;;;;18.98;77.14;95840.19;4363006;32;20193;-64
2023/09/28 09:16:23;;;;;;;1.60;1.50;;;;;;;18.95;76.94;95851.59;4324854;32;20227;-64
2023/09/28 09:18:53;;;;;;;0.70;0.70;;;;;;;19.05;76.05;95848.50;4328262;32;20181;-63
2023/09/28 09:21:19;;;;;;;1.07;1.07;;;;;;;19.14;73.78;95849.16;4351000;32;20180;-64
2023/09/28 09:24:02;;;;;;;1.30;1.27;;;;;;;19.34;71.25;95847.50;4380242;32;20193;-64
2023/09/28 09:26:28;;;;;;;1.03;1.03;;;;;;;19.52;69.86;95848.88;4362651;32;20176;-64
2023/09/28 09:29:01;;;;;;;1.57;1.47;;;;;;;19.56;69.71;95849.75;4377941;32;20273;-64
2023/09/28 09:31:28;;;;;;;1.23;1.20;;;;;;;19.51;70.59;95846.53;4377293;32;20189;-64
2023/09/28 09:33:56;;;;;;;1.77;1.37;;;;;;;19.50;71.10;95850.34;4376803;32;20289;-64
2023/09/28 09:36:22;;;;;;;0.90;0.90;;;;;;;19.44;71.11;95843.56;4357276;32;20207;-64
2023/09/28 09:38:50;;;;;;;2.53;1.80;;;;;;;19.43;70.74;95839.31;4367695;32;20189;-63
2023/09/28 09:41:18;;;;;;;1.53;1.43;;;;;;;19.47;70.64;95843.69;4347456;32;20196;-64
2023/09/28 09:43:46;;;;;;;1.17;1.17;;;;;;;19.46;71.20;95838.66;4377456;32;20185;-64
2023/09/28 09:46:13;;;;;;;1.37;1.27;;;;;;;19.47;70.33;95834.84;4356915;32;20199;-64
2023/09/28 09:48:41;;;;;;;1.70;1.60;;;;;;;19.48;70.15;95842.56;4318435;32;20189;-64
2023/09/28 09:51:15;;;;;;;1.23;1.23;;;;;;;19.56;69.10;95840.91;4354609;32;20186;-64
2023/09/28 09:53:44;;;;;;;1.17;1.17;;;;;;;19.62;69.16;95841.47;4347363;32;20275;-64
2023/09/28 09:56:13;;;;;;;1.03;0.90;;;;;;;19.60;69.42;95839.09;4347862;32;20181;-64
2023/09/28 09:58:50;;;;;;;1.43;1.33;;;;;;;19.54;69.32;95835.06;4359125;32;20385;-64
2023/09/28 10:01:17;;;;;;;1.30;1.20;;;;;;;19.62;68.94;95830.69;4351271;32;20240;-64
2023/09/28 10:03:50;;;;;;;4.80;2.00;;;;;;;19.67;67.79;95838.56;4367152;32;20185;-64
2023/09/28 10:06:21;;;;;;;0.90;0.90;;;;;;;19.71;68.19;95840.22;4342250;32;20196;-64
2023/09/28 10:08:50;;;;;;;1.67;1.57;;;;;;;19.75;67.85;95846.50;4335471;32;20208;-63
2023/09/28 10:11:18;;;;;;;1.53;1.43;;;;;;;19.69;68.82;95837.09;4345219;32;20208;-63
2023/09/28 10:13:44;;;;;;;1.27;1.27;;;;;;;19.79;68.15;95839.31;4359499;32;20189;-64
2023/09/28 10:16:13;;;;;;;0.93;0.93;;;;;;;19.85;67.68;95840.66;4348413;32;20271;-64
2023/09/28 10:18:47;;;;;;;1.13;1.13;;;;;;;19.98;67.85;95837.94;4368130;32;20194;-64
2023/09/28 10:21:14;;;;;;;1.00;1.00;;;;;;;19.95;67.83;95833.25;4346640;32;20185;-64
2023/09/28 10:23:42;;;;;;;1.10;1.10;;;;;;;19.96;67.84;95826.69;4361270;32;20181;-63
2023/09/28 10:26:18;;;;;;;0.90;0.90;;;;;;;20.02;67.63;95836.12;4338945;32;20195;-63
2023/09/28 10:29:08;;;;;;;0.73;0.73;;;;;;;19.93;68.45;95830.09;4356137;32;20188;-63
2023/09/28 10:31:39;;;;;;;1.73;1.63;;;;;;;19.92;69.54;95833.91;4373727;32;20191;-63
2023/09/28 10:34:08;;;;;;;1.60;1.50;;;;;;;19.93;69.92;95830.09;4375209;32;20188;-63
2023/09/28 10:36:40;;;;;;;1.37;1.37;;;;;;;19.90;69.40;95829.66;4340123;32;20200;-63
2023/09/28 10:39:15;;;;;;;0.60;0.60;;;;;;;19.93;69.15;95830.09;4353861;32;20189;-64
2023/09/28 10:41:52;;;;;;;1.47;1.47;;;;;;;20.01;68.45;95827.25;4352658;32;20284;-64
2023/09/28 10:44:21;;;;;;;1.07;1.07;;;;;;;19.97;69.41;95828.28;4362214;32;20199;-63
2023/09/28 10:46:49;;;;;;;1.80;1.53;;;;;;;19.88;70.29;95818.44;4362425;32;20184;-62
2023/09/28 10:49:31;;;;;;;6.87;6.37;;;;;;;19.89;68.95;95825.38;4378547;32;20234;-65
2023/09/28 10:51:57;;;;;;;2.30;2.20;;;;;;;19.94;68.69;95826.28;4324319;32;20189;-64
2023/09/28 10:54:25;;;;;;;2.83;1.37;;;;;;;19.96;68.03;95826.69;4347383;32;20207;-64
2023/09/28 10:56:52;;;;;;;2.20;1.77;;;;;;;19.93;67.41;95819.31;4362354;32;20245;-64
2023/09/28 10:59:21;;;;;;;2.03;1.70;;;;;;;19.97;67.37;95814.81;4334907;32;20260;-64
2023/09/28 11:01:49;;;;;;;1.87;1.77;;;;;;;19.98;66.62;95821.75;4351962;32;20255;-64
2023/09/28 11:04:18;;;;;;;1.17;1.10;;;;;;;20.03;67.15;95824.22;4352843;32;20197;-65
2023/09/28 11:06:44;;;;;;;1.37;1.27;;;;;;;20.14;66.37;95817.25;4327780;32;20181;-65
2023/09/28 11:09:19;;;;;;;1.30;1.30;;;;;;;20.22;66.20;95813.59;4339331;32;20331;-64
2023/09/28 11:11:45;;;;;;;0.83;0.83;;;;;;;20.24;65.66;95817.53;4331935;32;20229;-65
2023/09/28 11:14:12;;;;;;;5.10;4.70;;;;;;;20.24;65.98;95822.91;4365033;32;20195;-65
2023/09/28 11:16:42;;;;;;;2.30;2.10;;;;;;;20.25;65.84;95829.09;4360420;32;20403;-65
2023/09/28 11:19:13;;;;;;;1.13;1.13;;;;;;;20.46;62.02;95818.16;4337534;32;20297;-65
2023/09/28 11:21:45;;;;;;;1.60;1.43;;;;;;;20.45;62.73;95816.59;4305268;32;20356;-65
2023/09/28 11:24:12;;;;;;;1.00;1.00;;;;;;;20.42;63.36;95818.03;4340538;32;20211;-65
2023/09/28 11:26:40;;;;;;;1.07;1.07;;;;;;;20.38;62.92;95822.56;4319465;32;20260;-65
2023/09/28 11:29:09;;;;;;;1.83;1.73;;;;;;;20.46;63.72;95815.47;4321105;32;20181;-64
2023/09/28 11:31:47;;;;;;;1.20;1.10;;;;;;;20.42;64.36;95819.97;4295811;32;20229;-64
2023/09/28 11:34:12;;;;;;;0.90;0.90;;;;;;;20.47;63.90;95814.34;4317737;32;20295;-64
2023/09/28 11:36:40;;;;;;;4.57;1.80;;;;;;;20.66;62.08;95819.06;4309706;32;20255;-64
2023/09/28 11:39:07;;;;;;;1.37;1.37;;;;;;;20.79;62.02;95813.25;4334690;32;20195;-64
2023/09/28 11:41:36;;;;;;;0.90;0.90;;;;;;;20.71;62.19;95819.59;4360145;32;20195;-64
2023/09/28 11:44:03;;;;;;;1.30;1.20;;;;;;;20.71;63.21;95818.81;4360507;32;20181;-65
2023/09/28 11:46:35;;;;;;;1.07;1.07;;;;;;;20.70;61.96;95823.44;4345457;32;20195;-64